createdAt,value
2022-09-28T00:00:05.490Z,0.00
2022-09-28T00:01:05.591Z,0.00
2022-09-28T00:02:01.254Z,0.00
2022-09-28T00:02:58.240Z,0.00
2022-09-28T00:03:58.144Z,0.00
2022-09-28T00:04:58.352Z,0.00
2022-09-28T00:05:58.171Z,0.00
2022-09-28T00:06:58.069Z,0.00
2022-09-28T00:07:58.326Z,0.00
2022-09-28T00:08:58.305Z,0.00
2022-09-28T00:09:58.316Z,0.00
2022-09-28T00:10:59.277Z,0.00
2022-09-28T00:11:59.079Z,0.00
2022-09-28T00:12:58.240Z,0.00
2022-09-28T00:13:58.296Z,0.00
2022-09-28T00:14:58.232Z,0.00
2022-09-28T00:15:58.093Z,0.00
2022-09-28T00:16:57.963Z,0.00
2022-09-28T00:17:58.973Z,0.00
2022-09-28T00:19:13.478Z,0.00
2022-09-28T00:19:58.194Z,0.00
2022-09-28T00:21:13.417Z,0.00
2022-09-28T00:21:57.924Z,0.00
2022-09-28T00:23:18.933Z,0.00
2022-09-28T00:23:57.896Z,0.00
2022-09-28T00:25:05.142Z,0.00
2022-09-28T00:25:58.118Z,0.00
2022-09-28T00:26:58.096Z,0.00
2022-09-28T00:27:57.882Z,0.00
2022-09-28T00:28:58.102Z,0.00
2022-09-28T00:29:59.103Z,0.00
2022-09-28T00:30:58.087Z,0.00
2022-09-28T00:31:58.144Z,0.00
2022-09-28T00:32:59.033Z,0.00
2022-09-28T00:34:13.210Z,0.00
2022-09-28T00:35:00.874Z,0.00
2022-09-28T00:35:58.800Z,0.00
2022-09-28T00:36:58.022Z,0.00
2022-09-28T00:38:19.996Z,0.00
2022-09-28T00:39:04.797Z,0.00
2022-09-28T00:39:57.744Z,0.00
2022-09-28T00:40:57.794Z,0.00
2022-09-28T00:42:00.914Z,0.00
2022-09-28T00:42:57.692Z,0.00
2022-09-28T00:43:57.697Z,0.00
2022-09-28T00:44:57.682Z,0.00
2022-09-28T00:46:04.949Z,0.00
2022-09-28T00:46:57.668Z,0.00
2022-09-28T00:47:57.898Z,0.00
2022-09-28T00:49:00.897Z,0.00
2022-09-28T00:49:57.650Z,0.00
2022-09-28T00:51:00.869Z,0.00
2022-09-28T00:51:57.618Z,0.00
2022-09-28T00:52:57.619Z,0.00
2022-09-28T00:53:57.590Z,0.00
2022-09-28T00:54:57.562Z,0.00
2022-09-28T00:55:57.819Z,0.00
2022-09-28T00:56:57.768Z,0.00
2022-09-28T00:57:57.561Z,0.00
2022-09-28T00:59:00.797Z,0.00
2022-09-28T01:00:00.787Z,0.00
2022-09-28T01:00:57.873Z,0.00
2022-09-28T01:02:00.848Z,0.00
2022-09-28T01:02:57.557Z,0.00
2022-09-28T01:03:57.728Z,0.00
2022-09-28T01:05:00.505Z,0.00
2022-09-28T01:05:57.463Z,0.00
2022-09-28T01:06:57.437Z,0.00
2022-09-28T01:07:57.451Z,0.00
2022-09-28T01:08:57.449Z,0.00
2022-09-28T01:09:57.640Z,0.00
2022-09-28T01:10:58.647Z,0.00
2022-09-28T01:11:58.402Z,0.00
2022-09-28T01:13:00.428Z,0.00
2022-09-28T01:13:58.585Z,0.00
2022-09-28T01:14:57.594Z,0.00
2022-09-28T01:15:58.687Z,0.00
2022-09-28T01:16:57.554Z,0.00
2022-09-28T01:18:19.593Z,0.00
2022-09-28T01:18:57.321Z,0.00
2022-09-28T01:20:00.342Z,0.00
2022-09-28T01:20:57.548Z,0.00
2022-09-28T01:22:00.363Z,0.00
2022-09-28T01:22:57.279Z,0.00
2022-09-28T01:23:57.481Z,0.00
2022-09-28T01:24:57.489Z,0.00
2022-09-28T01:25:57.546Z,0.00
2022-09-28T01:27:04.563Z,0.00
2022-09-28T01:28:25.669Z,0.00
2022-09-28T01:28:57.210Z,0.00
2022-09-28T01:29:57.915Z,0.00
2022-09-28T01:30:58.205Z,0.00
2022-09-28T01:31:57.481Z,0.00
2022-09-28T01:32:57.413Z,0.00
2022-09-28T01:33:57.189Z,0.00
2022-09-28T01:34:58.160Z,0.00
2022-09-28T01:36:04.456Z,0.00
2022-09-28T01:37:04.334Z,0.00
2022-09-28T01:37:57.390Z,0.00
2022-09-28T01:38:57.123Z,0.00
2022-09-28T01:39:58.105Z,0.00
2022-09-28T01:41:12.429Z,0.00
2022-09-28T01:41:57.280Z,0.00
2022-09-28T01:42:58.071Z,0.00
2022-09-28T01:44:00.127Z,0.00
2022-09-28T01:44:58.084Z,0.00
2022-09-28T01:46:12.760Z,0.00
2022-09-28T01:46:57.280Z,0.00
2022-09-28T01:47:57.027Z,0.00
2022-09-28T01:48:56.993Z,0.00
2022-09-28T01:49:56.998Z,0.00
2022-09-28T01:51:00.254Z,0.00
2022-09-28T01:52:12.378Z,0.00
2022-09-28T01:52:57.236Z,0.00
2022-09-28T01:53:57.183Z,0.00
2022-09-28T01:54:57.164Z,0.00
2022-09-28T01:55:56.953Z,0.00
2022-09-28T01:56:56.951Z,0.00
2022-09-28T01:57:57.222Z,0.00
2022-09-28T01:58:57.127Z,0.00
2022-09-28T01:59:57.918Z,0.00
2022-09-28T02:00:56.967Z,0.00
2022-09-28T02:01:57.181Z,0.00
2022-09-28T02:02:58.116Z,0.00
2022-09-28T02:03:57.065Z,0.00
2022-09-28T02:04:59.877Z,0.00
2022-09-28T02:05:56.824Z,0.00
2022-09-28T02:06:57.064Z,0.00
2022-09-28T02:07:56.829Z,0.00
2022-09-28T02:08:56.805Z,0.00
2022-09-28T02:09:57.025Z,0.00
2022-09-28T02:10:58.021Z,0.00
2022-09-28T02:11:57.021Z,0.00
2022-09-28T02:12:58.011Z,0.00
2022-09-28T02:13:56.752Z,0.00
2022-09-28T02:14:56.971Z,0.00
2022-09-28T02:15:57.969Z,0.00
2022-09-28T02:16:56.711Z,0.00
2022-09-28T02:17:56.991Z,0.00
2022-09-28T02:18:56.720Z,0.00
2022-09-28T02:19:56.909Z,0.00
2022-09-28T02:20:59.708Z,0.00
2022-09-28T02:21:57.708Z,0.00
2022-09-28T02:22:57.661Z,0.00
2022-09-28T02:23:56.675Z,0.00
2022-09-28T02:24:59.670Z,0.00
2022-09-28T02:26:11.929Z,0.00
2022-09-28T02:26:57.620Z,0.00
2022-09-28T02:27:56.609Z,0.00
2022-09-28T02:28:56.810Z,0.00
2022-09-28T02:29:59.617Z,0.00
2022-09-28T02:31:03.882Z,0.00
2022-09-28T02:31:56.587Z,0.00
2022-09-28T02:32:56.578Z,0.00
2022-09-28T02:33:56.541Z,0.00
2022-09-28T02:34:56.522Z,0.00
2022-09-28T02:35:56.520Z,0.00
2022-09-28T02:36:56.501Z,0.00
2022-09-28T02:37:56.735Z,0.00
2022-09-28T02:39:04.027Z,0.00
2022-09-28T02:40:03.910Z,0.00
2022-09-28T02:40:57.582Z,0.00
2022-09-28T02:41:56.453Z,0.00
2022-09-28T02:43:12.083Z,0.00
2022-09-28T02:43:56.465Z,0.00
2022-09-28T02:44:57.677Z,0.00
2022-09-28T02:45:57.747Z,0.00
2022-09-28T02:46:56.633Z,0.00
2022-09-28T02:47:56.379Z,0.00
2022-09-28T02:49:17.288Z,0.00
2022-09-28T02:50:04.535Z,0.00
2022-09-28T02:50:56.609Z,0.00
2022-09-28T02:51:57.396Z,0.00
2022-09-28T02:52:57.431Z,0.00
2022-09-28T02:54:18.922Z,0.00
2022-09-28T02:55:03.502Z,0.00
2022-09-28T02:55:59.327Z,0.00
2022-09-28T02:56:57.544Z,0.00
2022-09-28T02:57:59.327Z,0.00
2022-09-28T02:58:56.299Z,0.00
2022-09-28T02:59:56.323Z,0.00
2022-09-28T03:01:03.489Z,0.00
2022-09-28T03:01:56.403Z,0.00
2022-09-28T03:02:57.481Z,0.00
2022-09-28T03:03:56.461Z,0.00
2022-09-28T03:04:56.473Z,0.00
2022-09-28T03:05:56.448Z,0.00
2022-09-28T03:06:56.403Z,0.00
2022-09-28T03:07:59.470Z,0.00
2022-09-28T03:08:56.402Z,0.00
2022-09-28T03:09:56.156Z,0.00
2022-09-28T03:10:56.174Z,0.00
2022-09-28T03:11:56.366Z,0.00
2022-09-28T03:13:03.327Z,0.00
2022-09-28T03:14:11.420Z,0.00
2022-09-28T03:14:56.319Z,0.00
2022-09-28T03:15:56.401Z,0.00
2022-09-28T03:17:17.316Z,0.00
2022-09-28T03:18:03.350Z,0.00
2022-09-28T03:18:56.292Z,0.00
2022-09-28T03:19:57.053Z,0.00
2022-09-28T03:20:56.029Z,0.00
2022-09-28T03:21:56.079Z,0.00
2022-09-28T03:23:22.665Z,0.00
2022-09-28T03:23:58.013Z,0.00
2022-09-28T03:24:55.998Z,0.00
2022-09-28T03:25:56.301Z,0.00
2022-09-28T03:27:17.988Z,0.00
2022-09-28T03:27:56.197Z,0.00
2022-09-28T03:28:59.228Z,0.00
2022-09-28T03:29:55.968Z,0.00
2022-09-28T03:30:55.957Z,0.00
2022-09-28T03:31:57.246Z,0.00
2022-09-28T03:32:56.922Z,0.00
2022-09-28T03:33:59.178Z,0.00
2022-09-28T03:34:55.898Z,0.00
2022-09-28T03:35:55.925Z,0.00
2022-09-28T03:36:55.866Z,0.00
2022-09-28T03:37:59.109Z,0.00
2022-09-28T03:38:59.120Z,0.00
2022-09-28T03:39:57.100Z,0.00
2022-09-28T03:40:55.904Z,0.00
2022-09-28T03:41:56.054Z,0.00
2022-09-28T03:42:56.046Z,0.00
2022-09-28T03:43:56.033Z,0.00
2022-09-28T03:44:58.810Z,0.00
2022-09-28T03:45:59.123Z,0.00
2022-09-28T03:46:55.788Z,0.00
2022-09-28T03:47:55.762Z,0.00
2022-09-28T03:48:55.744Z,0.00
2022-09-28T03:49:56.980Z,0.00
2022-09-28T03:51:11.230Z,0.00
2022-09-28T03:51:58.748Z,0.00
2022-09-28T03:52:55.893Z,0.00
2022-09-28T03:53:57.062Z,0.00
2022-09-28T03:54:58.073Z,0.00
2022-09-28T03:55:55.723Z,0.00
2022-09-28T03:56:58.861Z,0.00
2022-09-28T03:57:55.712Z,0.00
2022-09-28T03:58:55.865Z,0.00
2022-09-28T03:59:55.653Z,0.00
2022-09-28T04:00:56.709Z,0.00
2022-09-28T04:01:56.685Z,0.00
2022-09-28T04:03:02.896Z,0.00
2022-09-28T04:03:55.613Z,0.00
2022-09-28T04:04:55.584Z,0.00
2022-09-28T04:05:56.614Z,0.00
2022-09-28T04:07:02.750Z,0.00
2022-09-28T04:08:02.677Z,0.00
2022-09-28T04:08:55.771Z,0.00
2022-09-28T04:09:55.766Z,0.00
2022-09-28T04:11:02.882Z,0.00
2022-09-28T04:12:03.881Z,0.00
2022-09-28T04:12:56.740Z,0.00
2022-09-28T04:13:56.525Z,0.00
2022-09-28T04:14:55.450Z,0.00
2022-09-28T04:15:58.554Z,0.00
2022-09-28T04:16:55.499Z,0.00
2022-09-28T04:17:58.505Z,0.00
2022-09-28T04:18:55.423Z,0.00
2022-09-28T04:19:55.431Z,0.00
2022-09-28T04:20:56.440Z,0.00
2022-09-28T04:21:55.439Z,0.00
2022-09-28T04:22:55.611Z,0.00
2022-09-28T04:23:55.640Z,0.00
2022-09-28T04:24:55.368Z,0.00
2022-09-28T04:25:55.369Z,0.00
2022-09-28T04:26:55.357Z,0.00
2022-09-28T04:27:55.564Z,0.00
2022-09-28T04:28:55.555Z,0.00
2022-09-28T04:29:55.390Z,0.00
2022-09-28T04:30:55.335Z,0.00
2022-09-28T04:31:58.621Z,0.00
2022-09-28T04:32:56.506Z,0.00
2022-09-28T04:33:55.281Z,0.00
2022-09-28T04:35:10.780Z,0.00
2022-09-28T04:35:55.330Z,0.00
2022-09-28T04:36:55.240Z,0.00
2022-09-28T04:37:55.240Z,0.00
2022-09-28T04:38:55.209Z,0.00
2022-09-28T04:39:56.449Z,0.00
2022-09-28T04:40:56.473Z,0.00
2022-09-28T04:41:55.209Z,0.00
2022-09-28T04:42:55.426Z,0.00
2022-09-28T04:43:55.396Z,0.00
2022-09-28T04:44:55.400Z,0.00
2022-09-28T04:45:55.464Z,0.00
2022-09-28T04:47:07.152Z,0.00
2022-09-28T04:47:57.624Z,0.00
2022-09-28T04:49:17.988Z,0.00
2022-09-28T04:50:02.447Z,0.00
2022-09-28T04:50:58.128Z,0.00
2022-09-28T04:51:55.328Z,0.00
2022-09-28T04:52:55.109Z,0.00
2022-09-28T04:53:55.066Z,0.00
2022-09-28T04:54:55.040Z,0.00
2022-09-28T04:55:55.273Z,4.00
2022-09-28T04:56:56.057Z,0.00
2022-09-28T04:57:55.270Z,4.00
2022-09-28T04:58:56.041Z,0.00
2022-09-28T05:00:02.497Z,4.00
2022-09-28T05:00:55.000Z,8.00
2022-09-28T05:01:55.037Z,4.00
2022-09-28T05:02:55.213Z,8.00
2022-09-28T05:03:55.183Z,8.00
2022-09-28T05:04:55.200Z,12.00
2022-09-28T05:05:54.933Z,12.00
2022-09-28T05:06:54.951Z,12.00
2022-09-28T05:07:54.921Z,12.00
2022-09-28T05:08:58.175Z,16.00
2022-09-28T05:09:55.145Z,12.00
2022-09-28T05:10:58.161Z,16.00
2022-09-28T05:11:58.147Z,20.00
2022-09-28T05:12:55.168Z,20.00
2022-09-28T05:13:55.123Z,24.00
2022-09-28T05:15:10.301Z,48.00
2022-09-28T05:16:05.419Z,32.00
2022-09-28T05:16:55.075Z,28.00
2022-09-28T05:17:54.840Z,36.00
2022-09-28T05:18:54.804Z,32.00
2022-09-28T05:19:54.845Z,24.00
2022-09-28T05:20:55.807Z,40.00
2022-09-28T05:22:01.954Z,24.00
2022-09-28T05:22:54.801Z,28.00
2022-09-28T05:23:55.775Z,32.00
2022-09-28T05:24:55.022Z,40.00
2022-09-28T05:25:55.990Z,36.00
2022-09-28T05:26:55.982Z,60.00
2022-09-28T05:27:54.981Z,56.00
2022-09-28T05:28:54.942Z,52.00
2022-09-28T05:29:57.967Z,72.00
2022-09-28T05:30:54.675Z,80.00
2022-09-28T05:31:54.742Z,68.00
2022-09-28T05:32:54.685Z,68.00
2022-09-28T05:33:54.672Z,100.00
2022-09-28T05:34:54.866Z,108.00
2022-09-28T05:35:59.034Z,108.00
2022-09-28T05:36:55.845Z,100.00
2022-09-28T05:37:54.824Z,80.00
2022-09-28T05:38:54.608Z,120.00
2022-09-28T05:39:57.880Z,152.00
2022-09-28T05:40:54.642Z,140.00
2022-09-28T05:41:57.622Z,132.00
2022-09-28T05:42:54.554Z,116.00
2022-09-28T05:43:54.792Z,112.00
2022-09-28T05:44:54.785Z,164.00
2022-09-28T05:46:01.959Z,196.00
2022-09-28T05:46:57.546Z,216.00
2022-09-28T05:47:54.525Z,176.00
2022-09-28T05:48:54.738Z,184.00
2022-09-28T05:49:54.496Z,148.00
2022-09-28T05:50:54.456Z,136.00
2022-09-28T05:52:01.872Z,168.00
2022-09-28T05:52:54.444Z,144.00
2022-09-28T05:53:54.436Z,132.00
2022-09-28T05:54:54.665Z,128.00
2022-09-28T05:55:54.415Z,140.00
2022-09-28T05:56:54.670Z,132.00
2022-09-28T05:57:54.641Z,144.00
2022-09-28T05:58:54.595Z,144.00
2022-09-28T05:59:54.605Z,136.00
2022-09-28T06:00:57.682Z,156.00
2022-09-28T06:01:54.295Z,120.00
2022-09-28T06:02:54.565Z,136.00
2022-09-28T06:03:54.535Z,152.00
2022-09-28T06:04:54.398Z,164.00
2022-09-28T06:05:54.323Z,216.00
2022-09-28T06:06:54.334Z,184.00
2022-09-28T06:07:54.316Z,272.00
2022-09-28T06:08:57.333Z,452.00
2022-09-28T06:10:01.426Z,276.00
2022-09-28T06:10:54.494Z,264.00
2022-09-28T06:11:55.485Z,260.00
2022-09-28T06:12:57.249Z,300.00
2022-09-28T06:13:54.242Z,396.00
2022-09-28T06:15:01.476Z,388.00
2022-09-28T06:15:54.451Z,400.00
2022-09-28T06:16:54.466Z,444.00
2022-09-28T06:17:55.426Z,448.00
2022-09-28T06:18:54.519Z,392.00
2022-09-28T06:19:54.174Z,304.00
2022-09-28T06:20:54.162Z,380.00
2022-09-28T06:21:54.142Z,308.00
2022-09-28T06:22:54.364Z,356.00
2022-09-28T06:23:54.341Z,356.00
2022-09-28T06:24:54.341Z,412.00
2022-09-28T06:25:54.361Z,388.00
2022-09-28T06:26:54.332Z,336.00
2022-09-28T06:27:54.060Z,428.00
2022-09-28T06:28:54.055Z,328.00
2022-09-28T06:29:54.280Z,408.00
2022-09-28T06:30:54.175Z,440.00
2022-09-28T06:31:55.028Z,484.00
2022-09-28T06:32:54.278Z,496.00
2022-09-28T06:34:09.380Z,580.00
2022-09-28T06:34:56.334Z,600.00
2022-09-28T06:35:54.041Z,532.00
2022-09-28T06:36:55.231Z,552.00
2022-09-28T06:38:01.603Z,744.00
2022-09-28T06:38:53.964Z,588.00
2022-09-28T06:39:54.009Z,872.00
2022-09-28T06:40:53.978Z,668.00
2022-09-28T06:41:55.003Z,764.00
2022-09-28T06:42:53.926Z,1224.00
2022-09-28T06:43:53.945Z,736.00
2022-09-28T06:44:53.905Z,952.00
2022-09-28T06:45:54.170Z,1792.00
2022-09-28T06:46:53.880Z,776.00
2022-09-28T06:47:53.874Z,1032.00
2022-09-28T06:48:53.882Z,2076.00
2022-09-28T06:49:53.881Z,840.00
2022-09-28T06:50:53.834Z,664.00
2022-09-28T06:51:53.861Z,672.00
2022-09-28T06:52:53.827Z,1284.00
2022-09-28T06:53:53.820Z,2052.00
2022-09-28T06:54:53.825Z,932.00
2022-09-28T06:55:53.780Z,1924.00
2022-09-28T06:56:53.791Z,1212.00
2022-09-28T06:57:53.747Z,780.00
2022-09-28T06:58:53.730Z,864.00
2022-09-28T06:59:53.767Z,1944.00
2022-09-28T07:00:53.772Z,2532.00
2022-09-28T07:01:53.782Z,2020.00
2022-09-28T07:02:53.703Z,1796.00
2022-09-28T07:03:55.846Z,1496.00
2022-09-28T07:04:53.730Z,1884.00
2022-09-28T07:05:53.685Z,2408.00
2022-09-28T07:06:53.676Z,1720.00
2022-09-28T07:07:53.649Z,1516.00
2022-09-28T07:09:03.380Z,3172.00
2022-09-28T07:09:55.329Z,3444.00
2022-09-28T07:10:53.631Z,2504.00
2022-09-28T07:11:53.660Z,1748.00
2022-09-28T07:12:53.911Z,2424.00
2022-09-28T07:13:53.631Z,3388.00
2022-09-28T07:14:54.180Z,3032.00
2022-09-28T07:15:53.690Z,2380.00
2022-09-28T07:17:10.891Z,1884.00
2022-09-28T07:18:01.602Z,1440.00
2022-09-28T07:18:54.538Z,1532.00
2022-09-28T07:19:53.530Z,1460.00
2022-09-28T07:20:54.755Z,1836.00
2022-09-28T07:22:03.099Z,1392.00
2022-09-28T07:22:54.475Z,1640.00
2022-09-28T07:23:54.313Z,2492.00
2022-09-28T07:24:53.495Z,1408.00
2022-09-28T07:25:53.457Z,1328.00
2022-09-28T07:26:53.464Z,1500.00
2022-09-28T07:27:53.449Z,1660.00
2022-09-28T07:28:53.451Z,1848.00
2022-09-28T07:29:53.407Z,1844.00
2022-09-28T07:30:53.455Z,2424.00
2022-09-28T07:31:53.403Z,2280.00
2022-09-28T07:32:53.392Z,2688.00
2022-09-28T07:33:53.403Z,2036.00
2022-09-28T07:34:58.052Z,2152.00
2022-09-28T07:35:54.353Z,2180.00
2022-09-28T07:36:53.359Z,2524.00
2022-09-28T07:37:53.393Z,2516.00
2022-09-28T07:38:53.367Z,2456.00
2022-09-28T07:39:53.331Z,1668.00
2022-09-28T07:40:53.358Z,1148.00
2022-09-28T07:41:56.689Z,1160.00
2022-09-28T07:42:54.340Z,1116.00
2022-09-28T07:43:53.269Z,884.00
2022-09-28T07:44:53.267Z,860.00
2022-09-28T07:45:53.308Z,1220.00
2022-09-28T07:46:53.253Z,1248.00
2022-09-28T07:47:53.219Z,1020.00
2022-09-28T07:48:53.222Z,1668.00
2022-09-28T07:49:53.243Z,2368.00
2022-09-28T07:50:53.267Z,2820.00
2022-09-28T07:51:53.202Z,2328.00
2022-09-28T07:52:53.176Z,2120.00
2022-09-28T07:53:53.164Z,2764.00
2022-09-28T07:54:53.197Z,3140.00
2022-09-28T07:55:53.160Z,1940.00
2022-09-28T07:56:53.135Z,1296.00
2022-09-28T07:57:53.113Z,828.00
2022-09-28T07:58:53.103Z,772.00
2022-09-28T07:59:53.157Z,820.00
2022-09-28T08:00:53.126Z,1032.00
2022-09-28T08:01:53.151Z,1116.00
2022-09-28T08:02:53.077Z,1124.00
2022-09-28T08:03:53.062Z,1244.00
2022-09-28T08:04:53.051Z,964.00
2022-09-28T08:05:53.087Z,1360.00
2022-09-28T08:06:53.034Z,1432.00
2022-09-28T08:07:53.034Z,940.00
2022-09-28T08:08:52.991Z,908.00
2022-09-28T08:09:52.994Z,1240.00
2022-09-28T08:10:53.031Z,1300.00
2022-09-28T08:11:53.018Z,1540.00
2022-09-28T08:12:52.954Z,1024.00
2022-09-28T08:13:52.985Z,1516.00
2022-09-28T08:14:53.015Z,2248.00
2022-09-28T08:15:52.944Z,1048.00
2022-09-28T08:16:53.390Z,1224.00
2022-09-28T08:17:52.929Z,3396.00
2022-09-28T08:18:52.905Z,4028.00
2022-09-28T08:19:52.894Z,3472.00
2022-09-28T08:20:52.887Z,3540.00
2022-09-28T08:21:52.870Z,2880.00
2022-09-28T08:22:52.890Z,3232.00
2022-09-28T08:23:52.874Z,2808.00
2022-09-28T08:24:52.840Z,4704.00
2022-09-28T08:25:52.844Z,3752.00
2022-09-28T08:26:52.855Z,3224.00
2022-09-28T08:27:52.850Z,2420.00
2022-09-28T08:28:52.787Z,2012.00
2022-09-28T08:29:52.873Z,2028.00
2022-09-28T08:30:52.803Z,3116.00
2022-09-28T08:31:52.966Z,5300.00
2022-09-28T08:32:52.779Z,3416.00
2022-09-28T08:33:52.757Z,1500.00
2022-09-28T08:34:52.723Z,1532.00
2022-09-28T08:35:52.965Z,1844.00
2022-09-28T08:36:52.708Z,1544.00
2022-09-28T08:37:55.440Z,2508.00
2022-09-28T08:38:52.718Z,3476.00
2022-09-28T08:39:52.677Z,2396.00
2022-09-28T08:40:52.719Z,2508.00
2022-09-28T08:41:52.670Z,1728.00
2022-09-28T08:42:53.671Z,1948.00
2022-09-28T08:43:52.673Z,2232.00
2022-09-28T08:44:52.628Z,2456.00
2022-09-28T08:45:52.650Z,3080.00
2022-09-28T08:46:52.596Z,2060.00
2022-09-28T08:47:52.622Z,2040.00
2022-09-28T08:49:13.400Z,4080.00
2022-09-28T08:50:52.551Z,3808.00
2022-09-28T08:51:52.567Z,2908.00
2022-09-28T08:52:52.551Z,3080.00
2022-09-28T08:53:52.519Z,2384.00
2022-09-28T08:54:52.529Z,2036.00
2022-09-28T08:55:52.521Z,1640.00
2022-09-28T08:56:52.491Z,1396.00
2022-09-28T08:57:52.495Z,1060.00
2022-09-28T08:58:52.487Z,976.00
2022-09-28T08:59:52.461Z,1364.00
2022-09-28T09:00:52.543Z,3288.00
2022-09-28T09:01:55.035Z,3188.00
2022-09-28T09:02:52.513Z,1856.00
2022-09-28T09:03:52.466Z,3204.00
2022-09-28T09:04:52.420Z,1436.00
2022-09-28T09:05:52.423Z,1348.00
2022-09-28T09:06:52.421Z,2624.00
2022-09-28T09:07:52.378Z,2504.00
2022-09-28T09:08:52.414Z,2228.00
2022-09-28T09:09:52.374Z,1484.00
2022-09-28T09:10:52.339Z,856.00
2022-09-28T09:11:52.374Z,1304.00
2022-09-28T09:13:52.325Z,1488.00
2022-09-28T09:14:52.325Z,1996.00
2022-09-28T09:15:52.301Z,3048.00
2022-09-28T09:16:52.341Z,3744.00
2022-09-28T09:17:52.318Z,3192.00
2022-09-28T09:18:52.280Z,2240.00
2022-09-28T09:19:52.268Z,1748.00
2022-09-28T09:20:52.284Z,1188.00
2022-09-28T09:21:52.242Z,4140.00
2022-09-28T09:22:52.288Z,4320.00
2022-09-28T09:23:52.241Z,3140.00
2022-09-28T09:24:52.317Z,4332.00
2022-09-28T09:25:52.203Z,3152.00
2022-09-28T09:26:52.233Z,2948.00
2022-09-28T09:27:52.212Z,3456.00
2022-09-28T09:28:52.178Z,2328.00
2022-09-28T09:29:52.188Z,2092.00
2022-09-28T09:30:52.229Z,1544.00
2022-09-28T09:31:52.228Z,3712.00
2022-09-28T09:32:52.164Z,2896.00
2022-09-28T09:33:52.127Z,3560.00
2022-09-28T09:34:52.133Z,3696.00
2022-09-28T09:35:52.095Z,3744.00
2022-09-28T09:36:52.098Z,3636.00
2022-09-28T09:37:55.246Z,3152.00
2022-09-28T09:38:53.204Z,2120.00
2022-09-28T09:39:52.196Z,1248.00
2022-09-28T09:40:52.438Z,1148.00
2022-09-28T09:41:52.078Z,1068.00
2022-09-28T09:42:52.022Z,1444.00
2022-09-28T09:43:52.099Z,1064.00
2022-09-28T09:44:52.082Z,3168.00
2022-09-28T09:45:52.037Z,4604.00
2022-09-28T09:46:51.983Z,4192.00
2022-09-28T09:47:52.057Z,2908.00
2022-09-28T09:48:51.960Z,3444.00
2022-09-28T09:49:51.929Z,3276.00
2022-09-28T09:50:51.924Z,3636.00
2022-09-28T09:51:52.048Z,4232.00
2022-09-28T09:52:51.941Z,2992.00
2022-09-28T09:53:51.898Z,3336.00
2022-09-28T09:54:51.899Z,3892.00
2022-09-28T09:55:51.886Z,4464.00
2022-09-28T09:56:51.925Z,3716.00
2022-09-28T09:57:51.859Z,3304.00
2022-09-28T09:58:51.858Z,4840.00
2022-09-28T09:59:51.829Z,4028.00
2022-09-28T10:00:51.924Z,2696.00
2022-09-28T10:01:51.938Z,1644.00
2022-09-28T10:02:51.853Z,1420.00
2022-09-28T10:03:51.803Z,1484.00
2022-09-28T10:04:51.810Z,1704.00
2022-09-28T10:05:51.782Z,4276.00
2022-09-28T10:06:51.788Z,3504.00
2022-09-28T10:07:51.781Z,2188.00
2022-09-28T10:08:51.742Z,2108.00
2022-09-28T10:09:51.718Z,1708.00
2022-09-28T10:10:51.709Z,1468.00
2022-09-28T10:11:51.705Z,1480.00
2022-09-28T10:12:51.718Z,1424.00
2022-09-28T10:13:51.761Z,1432.00
2022-09-28T10:14:51.674Z,1260.00
2022-09-28T10:15:51.686Z,1144.00
2022-09-28T10:16:51.731Z,1296.00
2022-09-28T10:17:51.671Z,2164.00
2022-09-28T10:18:51.657Z,2324.00
2022-09-28T10:19:51.679Z,2456.00
2022-09-28T10:20:51.661Z,2896.00
2022-09-28T10:21:51.604Z,3712.00
2022-09-28T10:22:51.595Z,2980.00
2022-09-28T10:23:51.812Z,2792.00
2022-09-28T10:24:51.588Z,4060.00
2022-09-28T10:25:51.610Z,4648.00
2022-09-28T10:26:51.553Z,4108.00
2022-09-28T10:27:51.578Z,4212.00
2022-09-28T10:28:51.545Z,4108.00
2022-09-28T10:29:51.523Z,3364.00
2022-09-28T10:30:51.589Z,1956.00
2022-09-28T10:31:51.496Z,1640.00
2022-09-28T10:32:51.495Z,1812.00
2022-09-28T10:33:51.517Z,2516.00
2022-09-28T10:34:51.465Z,3448.00
2022-09-28T10:35:51.467Z,5476.00
2022-09-28T10:36:51.493Z,5140.00
2022-09-28T10:37:51.437Z,3300.00
2022-09-28T10:38:51.438Z,2376.00
2022-09-28T10:39:51.432Z,3700.00
2022-09-28T10:40:51.465Z,4116.00
2022-09-28T10:41:51.444Z,4576.00
2022-09-28T10:42:51.394Z,4476.00
2022-09-28T10:43:53.841Z,4596.00
2022-09-28T10:44:51.400Z,4140.00
2022-09-28T10:45:51.376Z,4432.00
2022-09-28T10:46:51.361Z,4328.00
2022-09-28T10:47:51.326Z,3088.00
2022-09-28T10:48:51.340Z,3552.00
2022-09-28T10:49:51.360Z,4040.00
2022-09-28T10:50:51.316Z,4556.00
2022-09-28T10:51:51.287Z,4304.00
2022-09-28T10:52:51.277Z,4140.00
2022-09-28T10:53:51.368Z,4008.00
2022-09-28T10:54:51.291Z,4060.00
2022-09-28T10:55:51.288Z,3688.00
2022-09-28T10:56:51.274Z,3256.00
2022-09-28T10:57:51.225Z,2536.00
2022-09-28T10:58:51.221Z,2116.00
2022-09-28T10:59:51.223Z,1680.00
2022-09-28T11:00:51.237Z,1316.00
2022-09-28T11:01:51.285Z,1408.00
2022-09-28T11:02:51.187Z,1816.00
2022-09-28T11:03:51.204Z,1812.00
2022-09-28T11:04:51.168Z,1808.00
2022-09-28T11:05:51.167Z,1804.00
2022-09-28T11:06:51.150Z,1784.00
2022-09-28T11:07:51.146Z,1808.00
2022-09-28T11:08:51.106Z,1804.00
2022-09-28T11:09:51.091Z,1808.00
2022-09-28T11:10:51.146Z,2056.00
2022-09-28T11:11:51.060Z,2508.00
2022-09-28T11:12:51.073Z,2412.00
2022-09-28T11:13:51.053Z,2844.00
2022-09-28T11:14:51.061Z,2712.00
2022-09-28T11:15:51.050Z,2464.00
2022-09-28T11:16:51.074Z,2164.00
2022-09-28T11:17:51.013Z,2176.00
2022-09-28T11:18:51.017Z,1972.00
2022-09-28T11:19:50.999Z,1848.00
2022-09-28T11:20:50.981Z,1896.00
2022-09-28T11:21:50.981Z,1856.00
2022-09-28T11:22:53.324Z,1828.00
2022-09-28T11:23:50.961Z,1840.00
2022-09-28T11:24:50.968Z,2068.00
2022-09-28T11:25:50.977Z,2212.00
2022-09-28T11:26:50.943Z,2300.00
2022-09-28T11:27:50.900Z,2160.00
2022-09-28T11:28:50.905Z,2040.00
2022-09-28T11:29:50.927Z,1944.00
2022-09-28T11:30:50.969Z,1744.00
2022-09-28T11:31:50.895Z,1840.00
2022-09-28T11:32:50.853Z,1864.00
2022-09-28T11:33:50.853Z,2032.00
2022-09-28T11:34:59.843Z,2164.00
2022-09-28T11:35:51.853Z,2516.00
2022-09-28T11:36:50.872Z,3096.00
2022-09-28T11:37:50.825Z,3740.00
2022-09-28T11:38:50.827Z,3792.00
2022-09-28T11:39:50.783Z,3640.00
2022-09-28T11:40:50.878Z,3744.00
2022-09-28T11:41:50.755Z,3740.00
2022-09-28T11:42:50.758Z,3556.00
2022-09-28T11:43:50.735Z,2896.00
2022-09-28T11:44:50.744Z,3460.00
2022-09-28T11:45:50.784Z,3772.00
2022-09-28T11:46:50.713Z,3432.00
2022-09-28T11:47:50.700Z,2940.00
2022-09-28T11:48:50.686Z,3068.00
2022-09-28T11:49:50.694Z,3720.00
2022-09-28T11:50:50.692Z,4180.00
2022-09-28T11:51:50.688Z,4512.00
2022-09-28T11:52:50.653Z,4204.00
2022-09-28T11:53:50.719Z,3688.00
2022-09-28T11:54:50.641Z,3764.00
2022-09-28T11:55:50.641Z,3524.00
2022-09-28T11:56:50.644Z,3384.00
2022-09-28T11:57:50.621Z,2844.00
2022-09-28T11:58:50.598Z,2376.00
2022-09-28T11:59:50.560Z,2200.00
2022-09-28T12:00:50.613Z,2056.00
2022-09-28T12:01:50.573Z,2060.00
2022-09-28T12:02:50.620Z,1848.00
2022-09-28T12:03:50.649Z,2012.00
2022-09-28T12:04:50.579Z,3104.00
2022-09-28T12:05:50.533Z,3592.00
2022-09-28T12:06:50.534Z,3696.00
2022-09-28T12:07:50.480Z,3836.00
2022-09-28T12:08:50.477Z,3852.00
2022-09-28T12:09:50.472Z,4044.00
2022-09-28T12:10:50.504Z,4132.00
2022-09-28T12:11:50.426Z,4072.00
2022-09-28T12:12:50.453Z,3984.00
2022-09-28T12:13:50.421Z,3952.00
2022-09-28T12:14:50.643Z,3764.00
2022-09-28T12:16:23.068Z,3876.00
2022-09-28T12:17:05.822Z,3616.00
2022-09-28T12:17:51.459Z,3648.00
2022-09-28T12:18:50.432Z,3596.00
2022-09-28T12:19:50.359Z,3368.00
2022-09-28T12:20:50.363Z,3252.00
2022-09-28T12:21:50.329Z,3536.00
2022-09-28T12:22:50.335Z,3384.00
2022-09-28T12:23:50.310Z,3408.00
2022-09-28T12:24:50.351Z,3508.00
2022-09-28T12:25:50.303Z,3572.00
2022-09-28T12:26:50.280Z,3288.00
2022-09-28T12:27:50.278Z,3144.00
2022-09-28T12:28:50.317Z,2864.00
2022-09-28T12:29:50.256Z,2616.00
2022-09-28T12:30:50.336Z,2720.00
2022-09-28T12:31:50.245Z,2492.00
2022-09-28T12:32:50.223Z,2672.00
2022-09-28T12:33:50.240Z,2832.00
2022-09-28T12:34:50.245Z,3068.00
2022-09-28T12:35:50.244Z,3132.00
2022-09-28T12:36:50.168Z,3012.00
2022-09-28T12:37:53.906Z,2848.00
2022-09-28T12:39:08.533Z,2944.00